Time;durP1;ratioP1;P1;durP2;ratioP2;P2;SDS_P1;SDS_P2;PMS_P1;PMS_P2;Temp;Humidity;BMP_temperature;BMP_pressure;BME280_temperature;BME280_humidity;BME280_pressure;Samples;Min_cycle;Max_cycle;Signal;HPM_P1;HPM_P2
2022/02/07 00:00:17;;;;;;;4.03;1.02;;;;;;;;;;2074007;28;20034;-64
2022/02/07 00:01:45;;;;;;;2.33;1.10;;;;;;;;;;2074341;28;20117;-65
2022/02/07 00:03:38;;;;;;;8.75;1.10;;;;;;;;;;2073935;28;20063;-64
2022/02/07 00:04:58;;;;;;;6.90;1.20;;;;;;;;;;2073477;28;20057;-65
2022/02/07 00:06:16;;;;;;;6.45;1.05;;;;;;;;;;2075426;28;20519;-63
2022/02/07 00:07:35;;;;;;;6.78;1.70;;;;;;;;;;2073582;28;21322;-65
2022/02/07 00:08:54;;;;;;;4.00;1.33;;;;;;;;;;2073535;28;20073;-65
2022/02/07 00:10:13;;;;;;;3.55;1.25;;;;;;;;;;2075049;28;20448;-65
2022/02/07 00:11:32;;;;;;;5.53;1.33;;;;;;;;;;2075401;28;20029;-63
2022/02/07 00:12:50;;;;;;;5.45;1.27;;;;;;;;;;2074164;28;20030;-65
2022/02/07 00:14:11;;;;;;;6.18;1.35;;;;;;;;;;2075221;28;20493;-65
2022/02/07 00:15:31;;;;;;;2.35;0.90;;;;;;;;;;2075012;28;20026;-63
2022/02/07 00:16:50;;;;;;;4.32;1.00;;;;;;;;;;2075756;28;20025;-64
2022/02/07 00:18:09;;;;;;;4.53;1.02;;;;;;;;;;2074371;28;20829;-65
2022/02/07 00:19:28;;;;;;;4.75;1.40;;;;;;;;;;2077008;28;20038;-64
2022/02/07 00:20:48;;;;;;;5.72;1.15;;;;;;;;;;2073601;28;20041;-63
2022/02/07 00:22:07;;;;;;;4.20;0.85;;;;;;;;;;2073081;28;20069;-64
2022/02/07 00:23:29;;;;;;;4.72;1.20;;;;;;;;;;2075671;28;20029;-63
2022/02/07 00:24:48;;;;;;;6.35;1.13;;;;;;;;;;2075449;28;20034;-63
2022/02/07 00:26:07;;;;;;;5.05;1.83;;;;;;;;;;2074039;28;20061;-63
2022/02/07 00:27:26;;;;;;;3.50;1.15;;;;;;;;;;2074104;28;20034;-65
2022/02/07 00:28:45;;;;;;;3.85;1.30;;;;;;;;;;2075769;28;20026;-65
2022/02/07 00:30:05;;;;;;;5.13;0.93;;;;;;;;;;2076682;28;20360;-65
2022/02/07 00:31:24;;;;;;;5.40;1.27;;;;;;;;;;2072783;28;20038;-64
2022/02/07 00:32:43;;;;;;;8.40;1.83;;;;;;;;;;2072346;28;20041;-64
2022/02/07 00:34:02;;;;;;;9.85;2.03;;;;;;;;;;2074257;27;20030;-64
2022/02/07 00:35:22;;;;;;;6.80;1.40;;;;;;;;;;2074374;27;20044;-65
2022/02/07 00:36:41;;;;;;;8.30;0.90;;;;;;;;;;2075607;28;20053;-64
2022/02/07 00:38:06;;;;;;;5.55;1.15;;;;;;;;;;2074441;28;20029;-64
2022/02/07 00:39:31;;;;;;;10.80;2.25;;;;;;;;;;2074341;27;20426;-64
2022/02/07 00:42:39;;;;;;;3.10;1.40;;;;;;;;;;2075405;28;20026;-65
2022/02/07 00:43:59;;;;;;;6.63;1.52;;;;;;;;;;2075188;28;20030;-64
2022/02/07 00:45:37;;;;;;;6.43;1.13;;;;;;;;;;2073705;28;20164;-63
2022/02/07 00:47:05;;;;;;;7.95;1.42;;;;;;;;;;2074643;27;20253;-64
2022/02/07 00:48:24;;;;;;;4.05;0.80;;;;;;;;;;2074920;28;20487;-64
2022/02/07 00:49:43;;;;;;;6.88;1.15;;;;;;;;;;2076902;28;20046;-65
2022/02/07 00:51:03;;;;;;;6.07;0.90;;;;;;;;;;2074582;28;20038;-64
2022/02/07 00:52:25;;;;;;;4.68;1.05;;;;;;;;;;2073499;28;20112;-64
2022/02/07 00:53:44;;;;;;;5.35;1.30;;;;;;;;;;2075898;28;20030;-65
2022/02/07 00:55:03;;;;;;;4.20;1.10;;;;;;;;;;2076169;28;20479;-64
2022/02/07 00:56:22;;;;;;;8.75;1.20;;;;;;;;;;2074741;28;20823;-63
2022/02/07 00:57:40;;;;;;;5.68;1.35;;;;;;;;;;2075985;28;20444;-64
2022/02/07 00:58:59;;;;;;;4.53;1.30;;;;;;;;;;2075985;28;20025;-65
2022/02/07 01:00:19;;;;;;;4.30;1.08;;;;;;;;;;2075045;27;20026;-63
2022/02/07 01:01:38;;;;;;;5.15;1.40;;;;;;;;;;2074454;28;20041;-63
2022/02/07 01:02:57;;;;;;;3.03;0.90;;;;;;;;;;2074351;27;20074;-65
2022/02/07 01:04:16;;;;;;;3.55;1.30;;;;;;;;;;2077073;27;20116;-65
2022/02/07 01:05:35;;;;;;;6.43;1.17;;;;;;;;;;2075081;28;20076;-62
2022/02/07 01:06:54;;;;;;;6.38;1.02;;;;;;;;;;2073288;28;20025;-63
2022/02/07 01:08:17;;;;;;;7.93;1.35;;;;;;;;;;2075528;28;20046;-64
2022/02/07 01:09:45;;;;;;;4.38;0.90;;;;;;;;;;2075306;27;20042;-63
2022/02/07 01:11:20;;;;;;;5.40;1.05;;;;;;;;;;2075338;28;20038;-63
2022/02/07 01:12:58;;;;;;;5.13;0.90;;;;;;;;;;2074850;28;20025;-63
2022/02/07 01:14:57;;;;;;;3.55;1.05;;;;;;;;;;2075010;27;20125;-65
2022/02/07 01:16:50;;;;;;;8.15;1.27;;;;;;;;;;2077026;27;20432;-64
2022/02/07 01:22:50;;;;;;;3.60;0.80;;;;;;;;;;2075080;28;20033;-63
2022/02/07 01:55:48;;;;;;;7.63;0.80;;;;;;;;;;2076132;28;20179;-64
2022/02/07 01:57:10;;;;;;;4.07;0.60;;;;;;;;;;2076665;27;20034;-65
2022/02/07 01:58:29;;;;;;;1.63;0.60;;;;;;;;;;2076294;28;20042;-65
2022/02/07 01:59:48;;;;;;;5.57;1.00;;;;;;;;;;2074904;28;20567;-65
2022/02/07 02:01:08;;;;;;;3.80;0.93;;;;;;;;;;2074511;28;20037;-63
2022/02/07 02:02:26;;;;;;;6.35;1.15;;;;;;;;;;2074391;27;20029;-64
2022/02/07 02:03:45;;;;;;;3.80;0.70;;;;;;;;;;2073394;27;20466;-63
2022/02/07 02:05:04;;;;;;;6.10;0.82;;;;;;;;;;2077233;27;20407;-65
2022/02/07 02:06:23;;;;;;;6.43;0.98;;;;;;;;;;2073131;28;20022;-63
2022/02/07 02:07:43;;;;;;;1.40;0.90;;;;;;;;;;2074567;28;20026;-65
2022/02/07 02:09:03;;;;;;;4.35;1.15;;;;;;;;;;2074191;28;20488;-65
2022/02/07 02:10:21;;;;;;;5.65;1.00;;;;;;;;;;2073618;28;20042;-65
2022/02/07 02:11:42;;;;;;;4.93;0.80;;;;;;;;;;2073777;28;20038;-64
2022/02/07 02:13:15;;;;;;;1.92;0.50;;;;;;;;;;2075224;28;20030;-64
2022/02/07 02:16:24;;;;;;;5.15;0.80;;;;;;;;;;2075462;28;20104;-65
2022/02/07 02:35:18;;;;;;;7.45;0.95;;;;;;;;;;2074634;28;20022;-63
2022/02/07 02:38:02;;;;;;;2.72;0.80;;;;;;;;;;2072833;28;20112;-64
2022/02/07 02:45:37;;;;;;;4.75;0.70;;;;;;;;;;2071975;27;20034;-65
2022/02/07 02:46:56;;;;;;;6.97;1.15;;;;;;;;;;2073198;28;20770;-65
2022/02/07 02:48:21;;;;;;;4.25;0.85;;;;;;;;;;2076294;28;20037;-65
2022/02/07 02:49:46;;;;;;;7.22;1.13;;;;;;;;;;2077522;28;20166;-65
2022/02/07 02:51:08;;;;;;;3.60;0.80;;;;;;;;;;2074643;28;20488;-65
2022/02/07 02:52:27;;;;;;;5.55;1.00;;;;;;;;;;2074239;27;20033;-65
2022/02/07 02:53:45;;;;;;;5.55;1.40;;;;;;;;;;2076240;28;20100;-65
2022/02/07 02:55:05;;;;;;;5.15;1.25;;;;;;;;;;2074887;28;20059;-65
2022/02/07 02:56:24;;;;;;;3.25;0.73;;;;;;;;;;2072661;28;20483;-64
2022/02/07 02:57:43;;;;;;;6.95;0.90;;;;;;;;;;2075901;28;20380;-65
2022/02/07 02:59:03;;;;;;;2.40;1.02;;;;;;;;;;2075110;28;20375;-65
2022/02/07 03:00:22;;;;;;;7.82;1.10;;;;;;;;;;2073452;28;20034;-65
2022/02/07 03:01:41;;;;;;;4.47;0.98;;;;;;;;;;2072765;28;20033;-64
2022/02/07 03:03:02;;;;;;;5.63;0.95;;;;;;;;;;2074209;28;20033;-65
2022/02/07 03:04:20;;;;;;;5.22;0.63;;;;;;;;;;2075590;28;20495;-64
2022/02/07 03:05:43;;;;;;;5.25;0.82;;;;;;;;;;2072373;28;20042;-65
2022/02/07 03:07:01;;;;;;;6.93;1.17;;;;;;;;;;2072949;28;20034;-65
2022/02/07 03:08:20;;;;;;;5.70;0.98;;;;;;;;;;2074911;28;20041;-66
2022/02/07 03:09:47;;;;;;;6.40;1.10;;;;;;;;;;2074082;28;20621;-65
2022/02/07 03:11:13;;;;;;;8.30;1.13;;;;;;;;;;2072795;28;20025;-65
2022/02/07 03:12:39;;;;;;;3.85;1.25;;;;;;;;;;2077814;28;20444;-65
2022/02/07 03:14:02;;;;;;;3.50;0.80;;;;;;;;;;2074459;27;20026;-65
2022/02/07 03:16:59;;;;;;;6.03;0.98;;;;;;;;;;2074059;28;20033;-63
2022/02/07 03:18:18;;;;;;;5.90;1.63;;;;;;;;;;2074539;28;20499;-64
2022/02/07 03:19:37;;;;;;;2.88;0.70;;;;;;;;;;2074945;28;20061;-65
2022/02/07 03:20:56;;;;;;;9.27;1.33;;;;;;;;;;2072257;28;20049;-64
2022/02/07 03:22:16;;;;;;;7.18;1.00;;;;;;;;;;2074263;28;20029;-63
2022/02/07 03:23:35;;;;;;;7.45;1.30;;;;;;;;;;2074272;28;20030;-65
2022/02/07 03:24:54;;;;;;;3.85;0.85;;;;;;;;;;2075055;28;20023;-64
2022/02/07 03:26:14;;;;;;;4.05;0.90;;;;;;;;;;2072316;28;20054;-64
2022/02/07 03:27:33;;;;;;;5.75;1.17;;;;;;;;;;2073085;28;20395;-66
2022/02/07 03:28:52;;;;;;;4.22;1.10;;;;;;;;;;2073136;28;20037;-63
2022/02/07 03:30:11;;;;;;;4.32;1.20;;;;;;;;;;2074429;28;20025;-62
2022/02/07 03:31:30;;;;;;;5.45;1.02;;;;;;;;;;2074956;28;20109;-66
2022/02/07 03:32:49;;;;;;;3.15;0.82;;;;;;;;;;2072474;28;20022;-66
2022/02/07 03:34:08;;;;;;;8.55;1.52;;;;;;;;;;2073247;28;20030;-63
2022/02/07 03:35:27;;;;;;;1.95;0.98;;;;;;;;;;2073563;28;20038;-66
2022/02/07 03:36:45;;;;;;;7.50;1.10;;;;;;;;;;2075977;28;20483;-66
2022/02/07 03:38:05;;;;;;;5.65;1.20;;;;;;;;;;2073208;28;20457;-66
2022/02/07 03:39:24;;;;;;;6.63;1.15;;;;;;;;;;2076614;28;20029;-65
2022/02/07 03:40:43;;;;;;;7.20;1.58;;;;;;;;;;2073741;28;20414;-64
2022/02/07 03:42:02;;;;;;;3.13;1.08;;;;;;;;;;2075093;28;20125;-65
2022/02/07 03:43:22;;;;;;;6.28;1.00;;;;;;;;;;2073151;28;20471;-66
2022/02/07 03:44:41;;;;;;;6.10;0.95;;;;;;;;;;2075642;28;20030;-65
2022/02/07 03:46:02;;;;;;;8.75;1.40;;;;;;;;;;2072301;28;20030;-65
2022/02/07 03:47:21;;;;;;;6.97;1.75;;;;;;;;;;2074166;28;20026;-65
2022/02/07 03:48:40;;;;;;;5.95;1.10;;;;;;;;;;2074116;28;20022;-64
2022/02/07 03:49:59;;;;;;;7.93;1.63;;;;;;;;;;2075882;28;20021;-66
2022/02/07 03:51:17;;;;;;;7.68;1.88;;;;;;;;;;2072380;28;20419;-64
2022/02/07 03:52:36;;;;;;;6.93;1.20;;;;;;;;;;2073894;28;20026;-64
2022/02/07 03:53:55;;;;;;;8.70;1.35;;;;;;;;;;2074946;28;20033;-65
2022/02/07 03:55:14;;;;;;;10.48;1.33;;;;;;;;;;2074339;28;20045;-65
2022/02/07 03:56:33;;;;;;;4.75;1.40;;;;;;;;;;2073740;28;20030;-66
2022/02/07 03:57:52;;;;;;;9.18;1.27;;;;;;;;;;2071899;28;20052;-66
2022/02/07 03:59:11;;;;;;;5.38;1.15;;;;;;;;;;2073693;28;20033;-65
2022/02/07 04:00:31;;;;;;;5.72;1.50;;;;;;;;;;2074497;28;20041;-64
2022/02/07 04:01:50;;;;;;;5.22;1.35;;;;;;;;;;2076921;28;20640;-65
2022/02/07 04:03:10;;;;;;;3.40;1.08;;;;;;;;;;2072961;28;20116;-64
2022/02/07 04:04:29;;;;;;;4.68;1.10;;;;;;;;;;2073636;28;20034;-66
2022/02/07 04:06:07;;;;;;;7.40;1.20;;;;;;;;;;2073243;28;20029;-64
2022/02/07 04:07:26;;;;;;;5.30;1.40;;;;;;;;;;2075780;28;20046;-66
2022/02/07 04:08:48;;;;;;;7.90;1.20;;;;;;;;;;2073882;28;20082;-65
2022/02/07 04:10:07;;;;;;;10.15;1.10;;;;;;;;;;2075782;28;20025;-66
2022/02/07 04:11:35;;;;;;;5.85;1.10;;;;;;;;;;2075893;27;20033;-65
2022/02/07 04:12:59;;;;;;;3.53;1.00;;;;;;;;;;2075724;27;20125;-64
2022/02/07 04:14:22;;;;;;;6.88;1.15;;;;;;;;;;2073635;28;20059;-64
2022/02/07 04:15:41;;;;;;;4.97;1.10;;;;;;;;;;2074465;28;20049;-64
2022/02/07 04:17:00;;;;;;;6.13;1.45;;;;;;;;;;2074951;28;20033;-64
2022/02/07 04:18:19;;;;;;;6.50;1.20;;;;;;;;;;2079787;28;20025;-64
2022/02/07 04:19:39;;;;;;;7.13;1.08;;;;;;;;;;2081334;27;20019;-64
2022/02/07 04:20:58;;;;;;;10.63;1.88;;;;;;;;;;2075485;27;20034;-64
2022/02/07 04:22:18;;;;;;;4.07;1.38;;;;;;;;;;2074079;28;20475;-64
2022/02/07 04:23:36;;;;;;;10.93;1.23;;;;;;;;;;2076552;28;20034;-64
2022/02/07 04:24:55;;;;;;;5.30;1.75;;;;;;;;;;2076658;27;20121;-64
2022/02/07 04:26:14;;;;;;;10.40;1.30;;;;;;;;;;2073801;28;20391;-64
2022/02/07 04:27:33;;;;;;;5.85;0.70;;;;;;;;;;2074811;28;20026;-64
2022/02/07 04:28:52;;;;;;;9.77;1.45;;;;;;;;;;2076216;28;20434;-65
2022/02/07 04:30:11;;;;;;;3.95;1.40;;;;;;;;;;2075448;28;20034;-65
2022/02/07 04:31:30;;;;;;;2.72;1.08;;;;;;;;;;2073054;28;20410;-64
2022/02/07 04:32:49;;;;;;;4.13;1.13;;;;;;;;;;2074986;28;20033;-65
2022/02/07 04:34:08;;;;;;;7.25;1.63;;;;;;;;;;2073620;28;20059;-64
2022/02/07 04:35:27;;;;;;;6.80;1.33;;;;;;;;;;2074904;28;20483;-65
2022/02/07 04:36:51;;;;;;;8.57;1.30;;;;;;;;;;2075606;28;20033;-65
2022/02/07 04:38:10;;;;;;;9.77;1.33;;;;;;;;;;2077681;28;20472;-65
2022/02/07 04:39:29;;;;;;;8.23;1.90;;;;;;;;;;2074178;27;20022;-65
2022/02/07 04:40:48;;;;;;;7.68;1.40;;;;;;;;;;2076405;28;20018;-65
2022/02/07 04:42:10;;;;;;;8.75;1.65;;;;;;;;;;2075408;28;20030;-66
2022/02/07 04:43:29;;;;;;;4.20;1.08;;;;;;;;;;2074483;28;20026;-62
2022/02/07 04:46:55;;;;;;;3.90;1.08;;;;;;;;;;2075444;28;20117;-65
2022/02/07 04:48:35;;;;;;;6.05;1.15;;;;;;;;;;2075835;28;20034;-64
2022/02/07 04:51:47;;;;;;;10.37;1.37;;;;;;;;;;2075325;27;20104;-64
2022/02/07 04:53:23;;;;;;;10.95;1.30;;;;;;;;;;2075499;27;20645;-64
2022/02/07 04:54:53;;;;;;;7.10;1.05;;;;;;;;;;2074187;28;20067;-63
2022/02/07 04:56:19;;;;;;;12.23;1.35;;;;;;;;;;2074163;28;20030;-65
2022/02/07 04:59:07;;;;;;;9.02;1.10;;;;;;;;;;2076412;28;20034;-64
2022/02/07 05:00:39;;;;;;;5.35;1.50;;;;;;;;;;2073674;28;20022;-64
2022/02/07 05:02:08;;;;;;;8.23;1.10;;;;;;;;;;2073522;28;20152;-64
2022/02/07 05:03:31;;;;;;;4.47;1.50;;;;;;;;;;2076126;28;20540;-65
2022/02/07 05:05:09;;;;;;;6.97;1.20;;;;;;;;;;2074785;27;20029;-65
2022/02/07 05:14:53;;;;;;;2.70;1.20;;;;;;;;;;2075513;28;20513;-65
2022/02/07 05:16:29;;;;;;;5.10;1.20;;;;;;;;;;2074899;28;20104;-65
2022/02/07 05:17:47;;;;;;;2.08;1.00;;;;;;;;;;2074287;27;20045;-65
2022/02/07 05:19:06;;;;;;;2.78;0.68;;;;;;;;;;2074201;28;20503;-64
2022/02/07 05:20:25;;;;;;;8.45;1.65;;;;;;;;;;2075939;28;20042;-64
2022/02/07 05:21:44;;;;;;;6.70;1.30;;;;;;;;;;2076460;28;20029;-65
2022/02/07 05:23:03;;;;;;;7.43;1.70;;;;;;;;;;2074689;28;20418;-65
2022/02/07 05:24:22;;;;;;;7.25;1.75;;;;;;;;;;2074740;27;20033;-64
2022/02/07 05:25:41;;;;;;;5.03;1.10;;;;;;;;;;2075610;28;20030;-64
2022/02/07 05:27:00;;;;;;;8.52;1.10;;;;;;;;;;2074204;28;20124;-64
2022/02/07 05:28:19;;;;;;;3.92;1.10;;;;;;;;;;2073515;28;20438;-64
2022/02/07 05:29:38;;;;;;;4.75;1.20;;;;;;;;;;2075304;28;20037;-65
2022/02/07 05:30:57;;;;;;;7.53;1.20;;;;;;;;;;2077543;27;20116;-64
2022/02/07 05:32:17;;;;;;;7.88;1.55;;;;;;;;;;2073571;27;20022;-64
2022/02/07 05:33:37;;;;;;;5.13;1.30;;;;;;;;;;2075453;28;20068;-65
2022/02/07 05:34:56;;;;;;;2.03;1.48;;;;;;;;;;2075258;27;20367;-65
2022/02/07 05:36:16;;;;;;;5.20;0.95;;;;;;;;;;2074665;27;20412;-63
2022/02/07 05:37:35;;;;;;;3.42;1.48;;;;;;;;;;2075955;27;20041;-64
2022/02/07 05:38:58;;;;;;;7.97;1.50;;;;;;;;;;2072530;27;20152;-64
2022/02/07 05:41:48;;;;;;;4.35;1.27;;;;;;;;;;2074187;28;19913;-65
2022/02/07 05:43:08;;;;;;;7.65;1.40;;;;;;;;;;2077304;28;20057;-64
2022/02/07 05:44:27;;;;;;;2.28;1.02;;;;;;;;;;2077912;27;20029;-66
2022/02/07 05:45:46;;;;;;;4.78;1.15;;;;;;;;;;2073288;27;20034;-64
2022/02/07 05:47:05;;;;;;;7.05;1.30;;;;;;;;;;2073315;28;20041;-65
2022/02/07 05:48:24;;;;;;;3.90;1.05;;;;;;;;;;2074855;28;20067;-65
2022/02/07 05:49:43;;;;;;;6.78;1.27;;;;;;;;;;2067565;28;20061;-65
2022/02/07 05:51:02;;;;;;;4.90;0.80;;;;;;;;;;2073465;28;20434;-65
2022/02/07 05:52:21;;;;;;;5.03;1.70;;;;;;;;;;2074456;28;20022;-64
2022/02/07 05:53:40;;;;;;;4.32;1.27;;;;;;;;;;2071310;28;20029;-65
2022/02/07 05:54:59;;;;;;;8.88;1.30;;;;;;;;;;2075561;28;20434;-64
2022/02/07 05:56:18;;;;;;;7.53;1.33;;;;;;;;;;2075170;28;20023;-63
2022/02/07 05:57:37;;;;;;;4.15;1.30;;;;;;;;;;2069440;28;20047;-66
2022/02/07 05:58:56;;;;;;;5.20;1.35;;;;;;;;;;2075039;28;20109;-66
2022/02/07 06:00:15;;;;;;;6.13;1.30;;;;;;;;;;2073514;28;20476;-66
2022/02/07 06:01:34;;;;;;;2.13;1.42;;;;;;;;;;2070155;28;20038;-69
2022/02/07 06:02:53;;;;;;;2.97;1.23;;;;;;;;;;2073560;28;20061;-65
2022/02/07 06:04:12;;;;;;;3.97;1.35;;;;;;;;;;2074448;28;20499;-65
2022/02/07 06:05:31;;;;;;;5.05;1.38;;;;;;;;;;2074234;28;20551;-65
2022/02/07 06:06:50;;;;;;;3.78;1.30;;;;;;;;;;2074171;28;20070;-65
2022/02/07 06:08:10;;;;;;;4.28;1.33;;;;;;;;;;2074133;28;20073;-65
2022/02/07 06:09:28;;;;;;;6.30;1.38;;;;;;;;;;2075882;28;20038;-65
2022/02/07 06:10:48;;;;;;;9.27;1.25;;;;;;;;;;2075070;28;20030;-65
2022/02/07 06:12:08;;;;;;;9.50;1.55;;;;;;;;;;2075311;28;20667;-64
2022/02/07 06:13:27;;;;;;;4.50;1.15;;;;;;;;;;2072982;28;20391;-65
2022/02/07 06:14:45;;;;;;;6.43;1.33;;;;;;;;;;2074977;28;20391;-65
2022/02/07 06:16:05;;;;;;;5.90;1.23;;;;;;;;;;2075229;27;20503;-65
2022/02/07 06:17:24;;;;;;;5.78;1.30;;;;;;;;;;2073701;28;20102;-65
2022/02/07 06:18:43;;;;;;;4.55;1.10;;;;;;;;;;2070772;28;20486;-66
2022/02/07 06:20:03;;;;;;;7.05;1.48;;;;;;;;;;2073707;28;20041;-66
2022/02/07 06:21:21;;;;;;;3.63;0.98;;;;;;;;;;2074826;28;20283;-66
2022/02/07 06:22:40;;;;;;;3.90;1.17;;;;;;;;;;2076802;27;20037;-65
2022/02/07 06:24:01;;;;;;;4.00;1.17;;;;;;;;;;2077056;28;20037;-66
2022/02/07 06:25:20;;;;;;;6.95;1.40;;;;;;;;;;2074159;28;20513;-66
2022/02/07 06:26:40;;;;;;;4.43;0.93;;;;;;;;;;2075686;28;20483;-65
2022/02/07 06:27:59;;;;;;;1.67;1.10;;;;;;;;;;2076460;28;20073;-66
2022/02/07 06:29:18;;;;;;;3.42;0.88;;;;;;;;;;2075881;28;20430;-65
2022/02/07 06:30:36;;;;;;;5.97;0.85;;;;;;;;;;2074978;28;20038;-66
2022/02/07 06:31:55;;;;;;;6.75;1.23;;;;;;;;;;2074628;28;20422;-67
2022/02/07 06:33:14;;;;;;;4.30;1.25;;;;;;;;;;2073893;28;20504;-65
2022/02/07 06:34:33;;;;;;;5.22;1.38;;;;;;;;;;2073313;28;20026;-66
2022/02/07 06:35:53;;;;;;;3.88;1.23;;;;;;;;;;2074698;28;20049;-66
2022/02/07 06:37:12;;;;;;;8.68;1.30;;;;;;;;;;2076731;27;20030;-66
2022/02/07 06:38:30;;;;;;;6.68;1.08;;;;;;;;;;2073519;27;20030;-66
2022/02/07 06:39:49;;;;;;;6.43;1.35;;;;;;;;;;2075972;28;20035;-67
2022/02/07 06:41:08;;;;;;;3.30;1.20;;;;;;;;;;2074483;28;20488;-67
2022/02/07 06:42:27;;;;;;;4.32;1.17;;;;;;;;;;2074605;28;20038;-66
2022/02/07 06:43:46;;;;;;;5.00;1.13;;;;;;;;;;2075272;28;20037;-66
2022/02/07 06:45:05;;;;;;;5.03;1.20;;;;;;;;;;2075753;28;20038;-67
2022/02/07 06:46:24;;;;;;;2.33;1.42;;;;;;;;;;2074446;28;20037;-67
2022/02/07 06:47:43;;;;;;;1.75;1.08;;;;;;;;;;2073720;28;20793;-67
2022/02/07 06:49:02;;;;;;;2.25;1.10;;;;;;;;;;2074312;28;20033;-66
2022/02/07 06:50:21;;;;;;;8.00;1.60;;;;;;;;;;2073319;28;20038;-66
2022/02/07 06:51:40;;;;;;;5.70;1.67;;;;;;;;;;2073193;28;20041;-66
2022/02/07 06:53:00;;;;;;;5.57;1.60;;;;;;;;;;2072448;28;20511;-66
2022/02/07 06:54:19;;;;;;;4.63;1.20;;;;;;;;;;2074705;27;20116;-66
2022/02/07 06:55:39;;;;;;;3.03;1.13;;;;;;;;;;2075463;28;20033;-66
2022/02/07 06:56:58;;;;;;;11.68;1.70;;;;;;;;;;2074462;28;20026;-66
2022/02/07 06:58:17;;;;;;;4.15;1.20;;;;;;;;;;2074344;28;20033;-66
2022/02/07 06:59:40;;;;;;;4.68;1.33;;;;;;;;;;2073900;28;20021;-66
2022/02/07 07:01:00;;;;;;;4.88;1.30;;;;;;;;;;2074157;28;20029;-66
2022/02/07 07:02:25;;;;;;;1.95;1.23;;;;;;;;;;2075163;28;20062;-66
2022/02/07 07:03:45;;;;;;;3.30;1.05;;;;;;;;;;2074938;28;20026;-66
2022/02/07 07:05:10;;;;;;;3.67;0.93;;;;;;;;;;2075141;28;20026;-65
2022/02/07 07:06:29;;;;;;;5.78;1.42;;;;;;;;;;2074792;28;20048;-65
2022/02/07 07:07:48;;;;;;;5.95;1.08;;;;;;;;;;2075378;28;20033;-67
2022/02/07 07:09:12;;;;;;;5.80;1.52;;;;;;;;;;2074294;28;20025;-65
2022/02/07 07:10:31;;;;;;;6.47;1.40;;;;;;;;;;2071462;28;20192;-63
2022/02/07 07:11:50;;;;;;;5.45;1.40;;;;;;;;;;2074903;28;20046;-65
2022/02/07 07:13:15;;;;;;;4.90;1.40;;;;;;;;;;2074572;28;20018;-66
2022/02/07 07:14:44;;;;;;;4.38;1.02;;;;;;;;;;2072705;28;20034;-66
2022/02/07 07:16:15;;;;;;;8.35;1.20;;;;;;;;;;2074584;28;20525;-66
2022/02/07 07:17:34;;;;;;;3.33;1.13;;;;;;;;;;2074084;28;20033;-65
2022/02/07 07:18:53;;;;;;;7.00;1.42;;;;;;;;;;2073109;28;20109;-66
2022/02/07 07:20:12;;;;;;;5.32;1.33;;;;;;;;;;2076739;28;20049;-65
2022/02/07 07:21:32;;;;;;;3.97;1.20;;;;;;;;;;2076361;28;20030;-66
2022/02/07 07:22:51;;;;;;;4.90;1.10;;;;;;;;;;2073649;28;20105;-62
2022/02/07 07:24:10;;;;;;;5.72;1.25;;;;;;;;;;2074757;28;20108;-64
2022/02/07 07:25:30;;;;;;;2.53;0.98;;;;;;;;;;2075087;28;20067;-62
2022/02/07 07:26:49;;;;;;;1.83;1.15;;;;;;;;;;2073035;28;20029;-62
2022/02/07 07:28:11;;;;;;;3.88;1.00;;;;;;;;;;2076481;28;20483;-62
2022/02/07 07:29:35;;;;;;;2.47;1.20;;;;;;;;;;2073498;28;21471;-64
2022/02/07 07:30:56;;;;;;;3.58;1.05;;;;;;;;;;2074545;28;20037;-63
2022/02/07 07:32:20;;;;;;;4.80;1.00;;;;;;;;;;2075128;28;20030;-64
2022/02/07 07:33:41;;;;;;;5.13;1.27;;;;;;;;;;2074883;28;20030;-63
2022/02/07 07:35:02;;;;;;;6.60;1.55;;;;;;;;;;2074982;28;20060;-64
2022/02/07 07:36:21;;;;;;;8.05;1.23;;;;;;;;;;2075055;28;20046;-64
2022/02/07 07:37:39;;;;;;;3.22;1.08;;;;;;;;;;2075541;28;20029;-64
2022/02/07 07:38:59;;;;;;;2.78;1.10;;;;;;;;;;2074655;28;20480;-64
2022/02/07 07:40:18;;;;;;;4.22;1.45;;;;;;;;;;2074913;28;20034;-62
2022/02/07 07:41:38;;;;;;;3.35;1.42;;;;;;;;;;2075268;28;20033;-63
2022/02/07 07:42:57;;;;;;;2.35;1.13;;;;;;;;;;2075481;28;20034;-63
2022/02/07 07:44:18;;;;;;;3.33;1.15;;;;;;;;;;2077400;27;20476;-63
2022/02/07 07:45:45;;;;;;;3.00;1.77;;;;;;;;;;2079414;27;20495;-63
2022/02/07 07:47:10;;;;;;;2.53;1.00;;;;;;;;;;2076908;27;20045;-63
2022/02/07 07:48:30;;;;;;;4.53;1.20;;;;;;;;;;2075174;28;20030;-63
2022/02/07 07:49:59;;;;;;;6.03;1.85;;;;;;;;;;2075474;28;20042;-64
2022/02/07 07:51:34;;;;;;;8.32;1.73;;;;;;;;;;2076241;28;20038;-63
2022/02/07 07:53:06;;;;;;;4.88;1.00;;;;;;;;;;2075042;28;20052;-64
2022/02/07 07:54:31;;;;;;;1.60;1.35;;;;;;;;;;2074099;28;20022;-64
2022/02/07 08:02:26;;;;;;;3.58;1.10;;;;;;;;;;2076113;28;20034;-63
2022/02/07 08:03:51;;;;;;;;;;;;;;;;;;2075989;28;20034;-63
2022/02/07 08:05:21;;;;;;;4.20;1.15;;;;;;;;;;2075392;28;19913;-64
2022/02/07 08:06:51;;;;;;;1.77;0.68;;;;;;;;;;2075280;28;20090;-64
2022/02/07 08:08:23;;;;;;;6.32;1.15;;;;;;;;;;2075140;28;20034;-64
2022/02/07 08:11:07;;;;;;;2.35;1.38;;;;;;;;;;2076215;28;20033;-63
2022/02/07 08:12:26;;;;;;;4.72;1.20;;;;;;;;;;2076735;28;20022;-64
2022/02/07 08:13:45;;;;;;;3.55;1.15;;;;;;;;;;2077175;28;20030;-64
2022/02/07 08:15:05;;;;;;;7.15;1.10;;;;;;;;;;2068740;28;20026;-63
2022/02/07 08:16:23;;;;;;;3.05;1.00;;;;;;;;;;2075140;28;20029;-64
2022/02/07 08:17:43;;;;;;;2.92;1.10;;;;;;;;;;2075224;28;20034;-61
2022/02/07 08:19:06;;;;;;;2.80;0.80;;;;;;;;;;2078986;27;20503;-62
2022/02/07 08:20:25;;;;;;;2.10;0.80;;;;;;;;;;2074208;28;20046;-63
2022/02/07 08:21:44;;;;;;;3.17;1.00;;;;;;;;;;2075073;28;20517;-62
2022/02/07 08:23:07;;;;;;;2.63;1.00;;;;;;;;;;2076096;28;20511;-63
2022/02/07 08:24:27;;;;;;;3.42;1.30;;;;;;;;;;2075688;28;20037;-63
2022/02/07 08:25:45;;;;;;;3.35;1.33;;;;;;;;;;2087523;27;20034;-63
2022/02/07 08:27:04;;;;;;;7.38;1.30;;;;;;;;;;2078554;28;20030;-63
2022/02/07 08:28:23;;;;;;;4.85;1.40;;;;;;;;;;2076025;28;20038;-63
2022/02/07 08:29:42;;;;;;;3.72;1.17;;;;;;;;;;2073357;28;20065;-63
2022/02/07 08:31:02;;;;;;;3.25;0.95;;;;;;;;;;2073945;28;20022;-63
2022/02/07 08:32:21;;;;;;;2.63;1.00;;;;;;;;;;2075882;28;20033;-63
2022/02/07 08:33:40;;;;;;;3.03;0.90;;;;;;;;;;2075836;28;20033;-62
2022/02/07 08:35:01;;;;;;;1.98;0.90;;;;;;;;;;2075070;28;20955;-63
2022/02/07 08:36:21;;;;;;;7.00;1.35;;;;;;;;;;2075915;27;20034;-62
2022/02/07 08:37:40;;;;;;;2.17;0.80;;;;;;;;;;2075698;28;20026;-64
2022/02/07 08:38:59;;;;;;;10.30;1.65;;;;;;;;;;2075045;28;20503;-62
2022/02/07 08:40:18;;;;;;;3.13;1.00;;;;;;;;;;2075606;28;20065;-62
2022/02/07 08:41:37;;;;;;;4.15;1.33;;;;;;;;;;2074698;28;20438;-65
2022/02/07 08:42:56;;;;;;;5.78;1.23;;;;;;;;;;2078247;28;20030;-64
2022/02/07 08:44:17;;;;;;;1.95;1.10;;;;;;;;;;2077261;27;20502;-63
2022/02/07 08:45:36;;;;;;;2.75;0.82;;;;;;;;;;2075350;28;20034;-62
2022/02/07 08:46:55;;;;;;;4.28;1.05;;;;;;;;;;2078349;27;20108;-63
2022/02/07 08:48:14;;;;;;;2.15;0.73;;;;;;;;;;2074213;28;20498;-62
2022/02/07 08:49:33;;;;;;;2.72;1.00;;;;;;;;;;2074944;28;20045;-65
2022/02/07 08:50:54;;;;;;;1.73;0.68;;;;;;;;;;2071296;28;20037;-62
2022/02/07 08:52:16;;;;;;;2.97;1.00;;;;;;;;;;2074172;28;20046;-62
2022/02/07 08:53:37;;;;;;;1.50;0.80;;;;;;;;;;2074076;28;20065;-64
2022/02/07 08:54:58;;;;;;;3.00;0.80;;;;;;;;;;2073312;28;20026;-62
2022/02/07 08:56:19;;;;;;;3.35;0.70;;;;;;;;;;2073793;28;20026;-62
2022/02/07 08:57:43;;;;;;;1.60;0.60;;;;;;;;;;2075366;28;20032;-61
2022/02/07 08:59:03;;;;;;;1.52;0.73;;;;;;;;;;2075057;28;20496;-62
2022/02/07 09:00:36;;;;;;;2.67;0.80;;;;;;;;;;2074724;28;20037;-62
2022/02/07 09:03:13;;;;;;;2.25;1.10;;;;;;;;;;2075216;28;20116;-62
2022/02/07 09:07:09;;;;;;;5.30;0.70;;;;;;;;;;2109083;28;20058;-62
2022/02/07 09:08:51;;;;;;;1.60;0.90;;;;;;;;;;2108935;28;20118;-64
2022/02/07 09:10:10;;;;;;;3.15;0.90;;;;;;;;;;2106750;28;20024;-62
2022/02/07 09:11:29;;;;;;;3.00;1.20;;;;;;;;;;2111916;28;20032;-62
2022/02/07 09:12:48;;;;;;;5.25;0.90;;;;;;;;;;2078285;28;20026;-62
2022/02/07 09:14:12;;;;;;;1.85;0.80;;;;;;;;;;2075592;28;20022;-64
2022/02/07 09:15:42;;;;;;;0.95;0.70;;;;;;;;;;2077171;28;20475;-62
2022/02/07 09:17:01;;;;;;;2.35;0.90;;;;;;;;;;2077577;27;20476;-62
2022/02/07 09:18:20;;;;;;;3.08;0.82;;;;;;;;;;2074372;28;20066;-61
2022/02/07 09:19:40;;;;;;;3.80;1.33;;;;;;;;;;2075341;28;20026;-64
2022/02/07 09:21:00;;;;;;;1.50;0.70;;;;;;;;;;2074174;28;20050;-61
2022/02/07 09:22:19;;;;;;;3.08;0.82;;;;;;;;;;2076672;28;20038;-64
2022/02/07 09:23:39;;;;;;;1.15;0.70;;;;;;;;;;2075159;28;20116;-61
2022/02/07 09:24:58;;;;;;;2.67;0.60;;;;;;;;;;2074571;28;20030;-62
2022/02/07 09:26:17;;;;;;;1.35;0.90;;;;;;;;;;2074282;28;20037;-64
2022/02/07 09:27:37;;;;;;;5.78;0.90;;;;;;;;;;2074319;28;20473;-63
2022/02/07 09:28:56;;;;;;;1.50;0.57;;;;;;;;;;2073737;28;20034;-64
2022/02/07 09:30:15;;;;;;;1.50;0.60;;;;;;;;;;2074663;28;20519;-64
2022/02/07 09:31:34;;;;;;;2.15;1.13;;;;;;;;;;2073859;28;20029;-65
2022/02/07 09:32:53;;;;;;;2.80;0.77;;;;;;;;;;2074275;28;20038;-63
2022/02/07 09:34:12;;;;;;;1.05;0.85;;;;;;;;;;2074822;28;20026;-62
2022/02/07 09:35:31;;;;;;;0.77;0.60;;;;;;;;;;2073645;28;20030;-63
2022/02/07 09:36:53;;;;;;;2.45;0.90;;;;;;;;;;2074014;28;20030;-62
2022/02/07 09:38:11;;;;;;;1.58;0.60;;;;;;;;;;2075258;28;20034;-62
2022/02/07 09:39:30;;;;;;;2.53;0.70;;;;;;;;;;2074817;28;20029;-64